sensor_id;sensor_type;location;lat;lon;timestamp;pressure;altitude;pressure_sealevel;temperature;humidity
43707;BME280;61348;53.392;-6.248;2023-02-26T00:00:09;101962.41;;;5.87;66.54
43707;BME280;61348;53.392;-6.248;2023-02-26T00:03:00;101964.03;;;5.88;66.51
43707;BME280;61348;53.392;-6.248;2023-02-26T00:05:47;101961.84;;;5.90;66.38
43707;BME280;61348;53.392;-6.248;2023-02-26T00:08:35;101957.97;;;5.91;66.16
43707;BME280;61348;53.392;-6.248;2023-02-26T00:11:22;101975.03;;;5.93;66.33
43707;BME280;61348;53.392;-6.248;2023-02-26T00:14:12;101961.28;;;5.93;65.84
43707;BME280;61348;53.392;-6.248;2023-02-26T00:17:08;101974.72;;;5.94;65.78
43707;BME280;61348;53.392;-6.248;2023-02-26T00:20:01;101977.47;;;5.94;65.87
43707;BME280;61348;53.392;-6.248;2023-02-26T00:22:48;101973.91;;;5.94;65.89
43707;BME280;61348;53.392;-6.248;2023-02-26T00:25:35;101978.56;;;5.93;65.61
43707;BME280;61348;53.392;-6.248;2023-02-26T00:28:22;101989.31;;;5.95;65.29
43707;BME280;61348;53.392;-6.248;2023-02-26T00:31:10;101979.69;;;5.92;65.62
43707;BME280;61348;53.392;-6.248;2023-02-26T00:33:57;101984.91;;;5.94;65.69
43707;BME280;61348;53.392;-6.248;2023-02-26T00:36:51;101987.94;;;5.92;65.71
43707;BME280;61348;53.392;-6.248;2023-02-26T00:43:19;101987.13;;;5.92;65.71
43707;BME280;61348;53.392;-6.248;2023-02-26T00:52:13;101990.97;;;5.91;66.00
43707;BME280;61348;53.392;-6.248;2023-02-26T00:55:00;101985.75;;;5.89;66.03
43707;BME280;61348;53.392;-6.248;2023-02-26T00:57:47;101984.09;;;5.88;66.18
43707;BME280;61348;53.392;-6.248;2023-02-26T01:00:34;101984.94;;;5.89;66.18
43707;BME280;61348;53.392;-6.248;2023-02-26T01:03:22;101986.03;;;5.88;66.57
43707;BME280;61348;53.392;-6.248;2023-02-26T01:06:12;101981.66;;;5.87;66.56
43707;BME280;61348;53.392;-6.248;2023-02-26T01:11:55;101979.72;;;5.82;66.54
43707;BME280;61348;53.392;-6.248;2023-02-26T01:14:43;101989.06;;;5.81;66.74
43707;BME280;61348;53.392;-6.248;2023-02-26T01:20:39;101989.94;;;5.77;66.85
43707;BME280;61348;53.392;-6.248;2023-02-26T01:23:32;101991.03;;;5.71;66.75
43707;BME280;61348;53.392;-6.248;2023-02-26T01:26:24;101999.31;;;5.66;67.04
43707;BME280;61348;53.392;-6.248;2023-02-26T01:29:12;101997.16;;;5.58;66.95
43707;BME280;61348;53.392;-6.248;2023-02-26T01:35:03;101992.81;;;5.41;67.07
43707;BME280;61348;53.392;-6.248;2023-02-26T01:38:51;101998.59;;;5.35;67.44
43707;BME280;61348;53.392;-6.248;2023-02-26T01:41:25;101994.50;;;5.27;67.58
43707;BME280;61348;53.392;-6.248;2023-02-26T01:44:29;101992.91;;;5.21;67.30
43707;BME280;61348;53.392;-6.248;2023-02-26T01:47:35;101995.38;;;5.18;67.30
43707;BME280;61348;53.392;-6.248;2023-02-26T01:50:26;102000.59;;;5.14;67.70
43707;BME280;61348;53.392;-6.248;2023-02-26T01:53:22;102002.25;;;5.10;67.89
43707;BME280;61348;53.392;-6.248;2023-02-26T01:56:17;102001.16;;;5.06;67.95
43707;BME280;61348;53.392;-6.248;2023-02-26T01:59:07;101999.78;;;5.04;67.80
43707;BME280;61348;53.392;-6.248;2023-02-26T02:01:57;102001.16;;;5.01;67.93
43707;BME280;61348;53.392;-6.248;2023-02-26T02:04:45;102005.28;;;4.99;67.69
43707;BME280;61348;53.392;-6.248;2023-02-26T02:07:33;102005.00;;;4.95;67.86
43707;BME280;61348;53.392;-6.248;2023-02-26T02:10:20;102012.69;;;4.93;67.88
43707;BME280;61348;53.392;-6.248;2023-02-26T02:16:19;102008.88;;;4.94;68.19
43707;BME280;61348;53.392;-6.248;2023-02-26T02:31:56;102018.16;;;5.23;67.94
43707;BME280;61348;53.392;-6.248;2023-02-26T02:34:52;102019.22;;;5.27;68.09
43707;BME280;61348;53.392;-6.248;2023-02-26T02:37:59;102021.41;;;5.30;67.88
43707;BME280;61348;53.392;-6.248;2023-02-26T02:40:56;102019.75;;;5.34;67.87
43707;BME280;61348;53.392;-6.248;2023-02-26T02:43:48;102021.97;;;5.37;67.79
43707;BME280;61348;53.392;-6.248;2023-02-26T02:46:38;102017.00;;;5.39;67.56
43707;BME280;61348;53.392;-6.248;2023-02-26T02:49:44;102024.94;;;5.41;67.54
43707;BME280;61348;53.392;-6.248;2023-02-26T02:52:55;102041.69;;;5.44;67.63
43707;BME280;61348;53.392;-6.248;2023-02-26T02:55:51;102046.06;;;5.45;67.60
43707;BME280;61348;53.392;-6.248;2023-02-26T02:58:43;102037.03;;;5.45;67.21
43707;BME280;61348;53.392;-6.248;2023-02-26T03:01:34;102039.50;;;5.41;67.17
43707;BME280;61348;53.392;-6.248;2023-02-26T03:04:22;102042.81;;;5.38;67.12
43707;BME280;61348;53.392;-6.248;2023-02-26T03:07:09;102041.72;;;5.34;67.06
43707;BME280;61348;53.392;-6.248;2023-02-26T03:09:56;102037.34;;;5.33;66.86
43707;BME280;61348;53.392;-6.248;2023-02-26T03:12:44;102035.97;;;5.31;66.66
43707;BME280;61348;53.392;-6.248;2023-02-26T03:22:31;102044.75;;;5.33;66.80
43707;BME280;61348;53.392;-6.248;2023-02-26T03:25:28;102036.25;;;5.34;66.70
43707;BME280;61348;53.392;-6.248;2023-02-26T03:28:28;102044.47;;;5.34;66.78
43707;BME280;61348;53.392;-6.248;2023-02-26T03:31:39;102041.44;;;5.36;66.61
43707;BME280;61348;53.392;-6.248;2023-02-26T03:34:39;102040.63;;;5.35;66.77
43707;BME280;61348;53.392;-6.248;2023-02-26T03:40:34;102041.19;;;5.27;66.30
43707;BME280;61348;53.392;-6.248;2023-02-26T03:43:33;102048.06;;;5.25;66.55
43707;BME280;61348;53.392;-6.248;2023-02-26T03:46:42;102053.31;;;5.21;66.46
43707;BME280;61348;53.392;-6.248;2023-02-26T03:49:47;102060.97;;;5.19;66.36
43707;BME280;61348;53.392;-6.248;2023-02-26T03:52:38;102062.06;;;5.23;66.61
43707;BME280;61348;53.392;-6.248;2023-02-26T03:55:34;102052.72;;;5.24;66.19
43707;BME280;61348;53.392;-6.248;2023-02-26T03:58:24;102056.59;;;5.23;66.23
43707;BME280;61348;53.392;-6.248;2023-02-26T04:01:19;102054.94;;;5.22;66.00
43707;BME280;61348;53.392;-6.248;2023-02-26T04:04:12;102049.19;;;5.24;66.29
43707;BME280;61348;53.392;-6.248;2023-02-26T04:07:01;102055.19;;;5.26;66.27
43707;BME280;61348;53.392;-6.248;2023-02-26T04:09:50;102058.47;;;5.28;66.19
43707;BME280;61348;53.392;-6.248;2023-02-26T04:12:37;102072.50;;;5.31;66.11
43707;BME280;61348;53.392;-6.248;2023-02-26T04:15:24;102061.22;;;5.33;66.38
43707;BME280;61348;53.392;-6.248;2023-02-26T04:18:11;102074.69;;;5.34;66.07
43707;BME280;61348;53.392;-6.248;2023-02-26T04:20:58;102073.31;;;5.37;66.11
43707;BME280;61348;53.392;-6.248;2023-02-26T04:23:45;102074.13;;;5.37;65.97
43707;BME280;61348;53.392;-6.248;2023-02-26T04:26:32;102080.44;;;5.38;65.97
43707;BME280;61348;53.392;-6.248;2023-02-26T04:29:19;102080.72;;;5.36;65.78
43707;BME280;61348;53.392;-6.248;2023-02-26T04:32:06;102088.41;;;5.34;65.57
43707;BME280;61348;53.392;-6.248;2023-02-26T04:34:53;102085.69;;;5.34;65.71
43707;BME280;61348;53.392;-6.248;2023-02-26T04:37:40;102088.69;;;5.33;65.79
43707;BME280;61348;53.392;-6.248;2023-02-26T04:40:27;102085.69;;;5.34;65.75
43707;BME280;61348;53.392;-6.248;2023-02-26T04:43:14;102094.44;;;5.36;65.86
43707;BME280;61348;53.392;-6.248;2023-02-26T04:46:01;102094.44;;;5.36;65.55
43707;BME280;61348;53.392;-6.248;2023-02-26T04:48:48;102089.78;;;5.37;65.89
43707;BME280;61348;53.392;-6.248;2023-02-26T04:51:35;102097.72;;;5.38;66.03
43707;BME280;61348;53.392;-6.248;2023-02-26T04:54:22;102088.41;;;5.39;65.39
43707;BME280;61348;53.392;-6.248;2023-02-26T04:57:09;102093.59;;;5.41;65.53
43707;BME280;61348;53.392;-6.248;2023-02-26T04:59:56;102091.69;;;5.41;65.27
43707;BME280;61348;53.392;-6.248;2023-02-26T05:02:43;102100.47;;;5.43;65.55
43707;BME280;61348;53.392;-6.248;2023-02-26T05:05:30;102103.22;;;5.43;65.54
43707;BME280;61348;53.392;-6.248;2023-02-26T05:08:17;102098.84;;;5.42;65.34
43707;BME280;61348;53.392;-6.248;2023-02-26T05:11:04;102105.69;;;5.45;65.28
43707;BME280;61348;53.392;-6.248;2023-02-26T05:13:51;102108.16;;;5.46;65.43
43707;BME280;61348;53.392;-6.248;2023-02-26T05:16:38;102118.06;;;5.47;65.36
43707;BME280;61348;53.392;-6.248;2023-02-26T05:19:25;102114.19;;;5.48;65.49
43707;BME280;61348;53.392;-6.248;2023-02-26T05:22:12;102131.50;;;5.49;65.51
43707;BME280;61348;53.392;-6.248;2023-02-26T05:24:59;102117.75;;;5.49;65.45
43707;BME280;61348;53.392;-6.248;2023-02-26T05:27:46;102123.00;;;5.50;65.24
43707;BME280;61348;53.392;-6.248;2023-02-26T05:30:33;102129.28;;;5.51;65.48
43707;BME280;61348;53.392;-6.248;2023-02-26T05:33:20;102138.66;;;5.50;65.34
43707;BME280;61348;53.392;-6.248;2023-02-26T05:36:07;102119.13;;;5.51;64.96
43707;BME280;61348;53.392;-6.248;2023-02-26T05:38:55;102121.88;;;5.51;65.25
43707;BME280;61348;53.392;-6.248;2023-02-26T05:41:42;102126.53;;;5.51;65.39
43707;BME280;61348;53.392;-6.248;2023-02-26T05:44:28;102114.75;;;5.50;65.27
43707;BME280;61348;53.392;-6.248;2023-02-26T05:47:16;102123.00;;;5.50;64.98
43707;BME280;61348;53.392;-6.248;2023-02-26T05:50:04;102137.53;;;5.51;64.92
43707;BME280;61348;53.392;-6.248;2023-02-26T05:52:51;102143.84;;;5.51;64.97
43707;BME280;61348;53.392;-6.248;2023-02-26T05:55:38;102141.66;;;5.48;65.36
43707;BME280;61348;53.392;-6.248;2023-02-26T05:58:25;102151.28;;;5.46;65.20
43707;BME280;61348;53.392;-6.248;2023-02-26T06:01:12;102156.22;;;5.44;65.45
43707;BME280;61348;53.392;-6.248;2023-02-26T06:03:59;102146.91;;;5.45;65.33
43707;BME280;61348;53.392;-6.248;2023-02-26T06:06:46;102166.91;;;5.45;65.15
43707;BME280;61348;53.392;-6.248;2023-02-26T06:09:33;102161.44;;;5.45;64.96
43707;BME280;61348;53.392;-6.248;2023-02-26T06:12:20;102165.00;;;5.46;65.27
43707;BME280;61348;53.392;-6.248;2023-02-26T06:15:08;102166.66;;;5.47;65.11
43707;BME280;61348;53.392;-6.248;2023-02-26T06:17:55;102159.50;;;5.46;65.15
43707;BME280;61348;53.392;-6.248;2023-02-26T06:20:42;102160.63;;;5.45;65.05
43707;BME280;61348;53.392;-6.248;2023-02-26T06:23:29;102164.16;;;5.45;65.03
43707;BME280;61348;53.392;-6.248;2023-02-26T06:26:16;102160.34;;;5.46;65.01
43707;BME280;61348;53.392;-6.248;2023-02-26T06:29:03;102164.16;;;5.45;65.23
43707;BME280;61348;53.392;-6.248;2023-02-26T06:31:50;102174.06;;;5.46;65.07
43707;BME280;61348;53.392;-6.248;2023-02-26T06:34:37;102181.22;;;5.47;64.96
43707;BME280;61348;53.392;-6.248;2023-02-26T06:37:24;102185.59;;;5.48;65.39
43707;BME280;61348;53.392;-6.248;2023-02-26T06:40:11;102185.59;;;5.48;65.36
43707;BME280;61348;53.392;-6.248;2023-02-26T06:42:59;102183.69;;;5.49;65.06
43707;BME280;61348;53.392;-6.248;2023-02-26T06:45:46;102181.75;;;5.49;65.51
43707;BME280;61348;53.392;-6.248;2023-02-26T06:48:33;102181.75;;;5.49;65.25
43707;BME280;61348;53.392;-6.248;2023-02-26T06:51:20;102184.50;;;5.49;65.42
43707;BME280;61348;53.392;-6.248;2023-02-26T06:54:07;102179.84;;;5.50;65.25
43707;BME280;61348;53.392;-6.248;2023-02-26T06:56:54;102191.91;;;5.49;65.60
43707;BME280;61348;53.392;-6.248;2023-02-26T06:59:43;102192.47;;;5.51;65.44
43707;BME280;61348;53.392;-6.248;2023-02-26T07:02:30;102197.16;;;5.50;65.70
43707;BME280;61348;53.392;-6.248;2023-02-26T07:05:17;102205.41;;;5.50;65.83
43707;BME280;61348;53.392;-6.248;2023-02-26T07:08:04;102201.53;;;5.51;65.49
43707;BME280;61348;53.392;-6.248;2023-02-26T07:10:51;102205.41;;;5.50;65.72
43707;BME280;61348;53.392;-6.248;2023-02-26T07:13:38;102223.50;;;5.51;65.89
43707;BME280;61348;53.392;-6.248;2023-02-26T07:16:26;102223.50;;;5.51;65.71
43707;BME280;61348;53.392;-6.248;2023-02-26T07:19:13;102224.63;;;5.50;65.80
43707;BME280;61348;53.392;-6.248;2023-02-26T07:22:00;102223.78;;;5.50;65.75
43707;BME280;61348;53.392;-6.248;2023-02-26T07:24:47;102222.97;;;5.49;65.88
43707;BME280;61348;53.392;-6.248;2023-02-26T07:27:35;102235.03;;;5.48;65.97
43707;BME280;61348;53.392;-6.248;2023-02-26T07:30:22;102247.69;;;5.49;65.88
43707;BME280;61348;53.392;-6.248;2023-02-26T07:33:09;102253.19;;;5.49;65.81
43707;BME280;61348;53.392;-6.248;2023-02-26T07:35:59;102265.00;;;5.50;65.92
43707;BME280;61348;53.392;-6.248;2023-02-26T07:38:47;102269.13;;;5.52;66.05
43707;BME280;61348;53.392;-6.248;2023-02-26T07:41:34;102276.25;;;5.53;66.14
43707;BME280;61348;53.392;-6.248;2023-02-26T07:44:21;102269.94;;;5.53;66.35
43707;BME280;61348;53.392;-6.248;2023-02-26T07:47:08;102268.56;;;5.56;66.56
43707;BME280;61348;53.392;-6.248;2023-02-26T07:49:56;102266.63;;;5.56;66.65
43707;BME280;61348;53.392;-6.248;2023-02-26T07:52:43;102270.19;;;5.57;66.70
43707;BME280;61348;53.392;-6.248;2023-02-26T07:55:30;102275.69;;;5.57;66.81
43707;BME280;61348;53.392;-6.248;2023-02-26T07:58:17;102290.81;;;5.59;67.02
43707;BME280;61348;53.392;-6.248;2023-02-26T08:01:04;102292.47;;;5.60;67.15
43707;BME280;61348;53.392;-6.248;2023-02-26T08:03:52;102303.75;;;5.64;67.04
43707;BME280;61348;53.392;-6.248;2023-02-26T08:06:39;102294.38;;;5.65;67.00
43707;BME280;61348;53.392;-6.248;2023-02-26T08:09:27;102298.25;;;5.64;66.85
43707;BME280;61348;53.392;-6.248;2023-02-26T08:12:14;102295.50;;;5.64;66.85
43707;BME280;61348;53.392;-6.248;2023-02-26T08:15:01;102299.03;;;5.64;67.11
43707;BME280;61348;53.392;-6.248;2023-02-26T08:17:51;102308.13;;;5.65;66.84
43707;BME280;61348;53.392;-6.248;2023-02-26T08:20:38;102304.53;;;5.64;67.15
43707;BME280;61348;53.392;-6.248;2023-02-26T08:23:25;102315.81;;;5.68;67.41
43707;BME280;61348;53.392;-6.248;2023-02-26T08:26:12;102323.22;;;5.72;67.12
43707;BME280;61348;53.392;-6.248;2023-02-26T08:28:59;102326.25;;;5.76;67.44
43707;BME280;61348;53.392;-6.248;2023-02-26T08:31:46;102335.63;;;5.80;67.17
43707;BME280;61348;53.392;-6.248;2023-02-26T08:34:34;102341.66;;;5.82;67.59
43707;BME280;61348;53.392;-6.248;2023-02-26T08:37:21;102340.53;;;5.83;67.16
43707;BME280;61348;53.392;-6.248;2023-02-26T08:40:11;102348.78;;;5.83;67.51
43707;BME280;61348;53.392;-6.248;2023-02-26T08:43:00;102354.03;;;5.84;67.45
43707;BME280;61348;53.392;-6.248;2023-02-26T08:45:53;102352.38;;;5.83;67.40
43707;BME280;61348;53.392;-6.248;2023-02-26T08:48:40;102353.19;;;5.84;67.57
43707;BME280;61348;53.392;-6.248;2023-02-26T08:51:27;102357.06;;;5.88;67.66
43707;BME280;61348;53.392;-6.248;2023-02-26T08:54:15;102356.81;;;5.89;67.68
43707;BME280;61348;53.392;-6.248;2023-02-26T08:57:02;102364.22;;;5.94;67.36
43707;BME280;61348;53.392;-6.248;2023-02-26T08:59:49;102364.75;;;5.96;67.64
43707;BME280;61348;53.392;-6.248;2023-02-26T09:02:37;102370.84;;;5.98;67.61
43707;BME280;61348;53.392;-6.248;2023-02-26T09:05:24;102374.38;;;5.98;67.65
43707;BME280;61348;53.392;-6.248;2023-02-26T09:08:11;102359.84;;;5.98;68.00
43707;BME280;61348;53.392;-6.248;2023-02-26T09:11:01;102352.69;;;5.97;68.09
43707;BME280;61348;53.392;-6.248;2023-02-26T09:13:48;102360.09;;;5.96;68.11
43707;BME280;61348;53.392;-6.248;2023-02-26T09:16:35;102362.59;;;5.98;68.19
43707;BME280;61348;53.392;-6.248;2023-02-26T09:19:23;102373.28;;;5.99;67.88
43707;BME280;61348;53.392;-6.248;2023-02-26T09:22:10;102373.84;;;6.01;68.30
43707;BME280;61348;53.392;-6.248;2023-02-26T09:24:57;102381.81;;;6.08;68.29
43707;BME280;61348;53.392;-6.248;2023-02-26T09:27:44;102379.59;;;6.25;68.09
43707;BME280;61348;53.392;-6.248;2023-02-26T09:30:31;102379.06;;;6.43;68.69
43707;BME280;61348;53.392;-6.248;2023-02-26T09:33:18;102387.28;;;6.53;67.92
43707;BME280;61348;53.392;-6.248;2023-02-26T09:36:05;102394.97;;;6.56;67.58
43707;BME280;61348;53.392;-6.248;2023-02-26T09:38:52;102392.22;;;6.61;67.69
43707;BME280;61348;53.392;-6.248;2023-02-26T09:41:43;102413.66;;;6.69;67.35
43707;BME280;61348;53.392;-6.248;2023-02-26T09:44:35;102417.75;;;6.82;67.29
43707;BME280;61348;53.392;-6.248;2023-02-26T09:47:27;102422.41;;;6.87;67.21
43707;BME280;61348;53.392;-6.248;2023-02-26T09:50:21;102416.38;;;6.80;67.03
43707;BME280;61348;53.392;-6.248;2023-02-26T09:53:23;102412.00;;;6.73;67.06
43707;BME280;61348;53.392;-6.248;2023-02-26T09:56:16;102419.72;;;6.66;67.29
43707;BME280;61348;53.392;-6.248;2023-02-26T09:59:04;102431.28;;;6.58;67.25
43707;BME280;61348;53.392;-6.248;2023-02-26T10:02:18;102432.94;;;6.54;67.34
43707;BME280;61348;53.392;-6.248;2023-02-26T10:05:37;102424.13;;;6.62;67.12
43707;BME280;61348;53.392;-6.248;2023-02-26T10:12:03;102438.38;;;6.90;67.39
43707;BME280;61348;53.392;-6.248;2023-02-26T10:14:57;102441.63;;;7.02;67.30
43707;BME280;61348;53.392;-6.248;2023-02-26T10:18:20;102448.25;;;7.06;67.34
43707;BME280;61348;53.392;-6.248;2023-02-26T10:21:19;102462.28;;;7.04;67.05
43707;BME280;61348;53.392;-6.248;2023-02-26T10:24:21;102465.88;;;7.05;67.43
43707;BME280;61348;53.392;-6.248;2023-02-26T10:27:23;102473.56;;;7.08;67.29
43707;BME280;61348;53.392;-6.248;2023-02-26T10:30:43;102480.16;;;7.22;67.39
43707;BME280;61348;53.392;-6.248;2023-02-26T10:36:29;102490.47;;;7.55;67.30
43707;BME280;61348;53.392;-6.248;2023-02-26T10:42:32;102487.97;;;7.64;66.71
43707;BME280;61348;53.392;-6.248;2023-02-26T10:45:51;102487.75;;;7.50;66.81
43707;BME280;61348;53.392;-6.248;2023-02-26T10:49:08;102487.25;;;7.38;66.76
43707;BME280;61348;53.392;-6.248;2023-02-26T10:52:09;102490.84;;;7.39;66.96
43707;BME280;61348;53.392;-6.248;2023-02-26T10:57:55;102496.03;;;7.45;66.84
43707;BME280;61348;53.392;-6.248;2023-02-26T11:00:48;102485.63;;;7.32;66.69
43707;BME280;61348;53.392;-6.248;2023-02-26T11:03:38;102490.88;;;7.23;66.53
43707;BME280;61348;53.392;-6.248;2023-02-26T11:06:33;102487.28;;;7.23;66.76
43707;BME280;61348;53.392;-6.248;2023-02-26T11:09:32;102497.75;;;7.26;66.71
43707;BME280;61348;53.392;-6.248;2023-02-26T11:12:20;102499.91;;;7.39;66.85
43707;BME280;61348;53.392;-6.248;2023-02-26T11:15:17;102494.91;;;7.51;66.77
43707;BME280;61348;53.392;-6.248;2023-02-26T11:18:11;102497.03;;;7.69;66.46
43707;BME280;61348;53.392;-6.248;2023-02-26T11:20:59;102499.09;;;7.92;66.19
43707;BME280;61348;53.392;-6.248;2023-02-26T11:23:48;102497.41;;;8.02;66.08
43707;BME280;61348;53.392;-6.248;2023-02-26T11:26:37;102493.56;;;7.97;65.95
43707;BME280;61348;53.392;-6.248;2023-02-26T11:29:25;102498.63;;;7.80;65.62
43707;BME280;61348;53.392;-6.248;2023-02-26T11:32:31;102504.78;;;7.62;66.07
43707;BME280;61348;53.392;-6.248;2023-02-26T11:35:21;102500.66;;;7.55;65.94
43707;BME280;61348;53.392;-6.248;2023-02-26T11:38:15;102497.34;;;7.58;65.95
43707;BME280;61348;53.392;-6.248;2023-02-26T11:41:04;102508.06;;;7.69;65.83
43707;BME280;61348;53.392;-6.248;2023-02-26T11:47:26;102497.47;;;7.86;65.57
43707;BME280;61348;53.392;-6.248;2023-02-26T11:50:18;102506.56;;;7.92;65.49
43707;BME280;61348;53.392;-6.248;2023-02-26T11:53:13;102499.06;;;7.97;65.63
43707;BME280;61348;53.392;-6.248;2023-02-26T11:56:07;102497.09;;;8.03;65.42
43707;BME280;61348;53.392;-6.248;2023-02-26T11:58:57;102497.97;;;7.98;65.35
43707;BME280;61348;53.392;-6.248;2023-02-26T12:01:48;102497.69;;;8.00;65.65
43707;BME280;61348;53.392;-6.248;2023-02-26T12:04:39;102501.22;;;8.06;65.74
43707;BME280;61348;53.392;-6.248;2023-02-26T12:07:29;102512.75;;;8.18;65.55
43707;BME280;61348;53.392;-6.248;2023-02-26T12:10:21;102517.94;;;8.24;66.10
43707;BME280;61348;53.392;-6.248;2023-02-26T12:13:25;102508.84;;;8.24;65.43
43707;BME280;61348;53.392;-6.248;2023-02-26T12:16:23;102500.59;;;8.19;65.33
43707;BME280;61348;53.392;-6.248;2023-02-26T12:22:34;102503.88;;;8.21;65.50
43707;BME280;61348;53.392;-6.248;2023-02-26T12:29:05;102505.03;;;8.15;65.36
43707;BME280;61348;53.392;-6.248;2023-02-26T12:35:21;102503.38;;;8.14;65.21
43707;BME280;61348;53.392;-6.248;2023-02-26T12:38:24;102509.81;;;8.04;65.26
43707;BME280;61348;53.392;-6.248;2023-02-26T13:06:13;102495.47;;;8.02;64.50
43707;BME280;61348;53.392;-6.248;2023-02-26T13:15:20;102501.31;;;7.95;64.51
43707;BME280;61348;53.392;-6.248;2023-02-26T13:19:20;102497.19;;;7.93;64.51
43707;BME280;61348;53.392;-6.248;2023-02-26T13:25:33;102505.19;;;7.89;64.79
43707;BME280;61348;53.392;-6.248;2023-02-26T13:27:36;102497.47;;;7.86;64.85
43707;BME280;61348;53.392;-6.248;2023-02-26T13:30:24;102498.34;;;7.82;64.86
43707;BME280;61348;53.392;-6.248;2023-02-26T13:32:57;102501.44;;;7.75;65.13
43707;BME280;61348;53.392;-6.248;2023-02-26T13:35:37;102496.38;;;7.87;65.21
43707;BME280;61348;53.392;-6.248;2023-02-26T13:41:11;102496.25;;;8.13;65.10
43707;BME280;61348;53.392;-6.248;2023-02-26T13:44:08;102501.69;;;8.23;65.10
43707;BME280;61348;53.392;-6.248;2023-02-26T13:46:49;102495.88;;;8.24;65.15
43707;BME280;61348;53.392;-6.248;2023-02-26T13:49:36;102490.66;;;8.23;65.07
43707;BME280;61348;53.392;-6.248;2023-02-26T13:52:23;102489.00;;;8.22;65.17
43707;BME280;61348;53.392;-6.248;2023-02-26T13:54:50;102496.16;;;8.23;65.21
43707;BME280;61348;53.392;-6.248;2023-02-26T13:57:47;102503.88;;;8.26;65.25
43707;BME280;61348;53.392;-6.248;2023-02-26T14:00:33;102501.69;;;8.23;65.28
43707;BME280;61348;53.392;-6.248;2023-02-26T14:08:17;102491.78;;;8.17;65.62
43707;BME280;61348;53.392;-6.248;2023-02-26T14:13:20;102503.44;;;8.09;65.38
43707;BME280;61348;53.392;-6.248;2023-02-26T14:16:10;102507.84;;;8.10;65.11
43707;BME280;61348;53.392;-6.248;2023-02-26T14:18:48;102506.44;;;8.12;65.09
43707;BME280;61348;53.392;-6.248;2023-02-26T14:21:27;102504.47;;;8.18;65.16
43707;BME280;61348;53.392;-6.248;2023-02-26T14:24:22;102506.63;;;8.26;65.26
43707;BME280;61348;53.392;-6.248;2023-02-26T14:26:50;102509.94;;;8.28;65.19
43707;BME280;61348;53.392;-6.248;2023-02-26T14:29:24;102504.66;;;8.36;65.20
43707;BME280;61348;53.392;-6.248;2023-02-26T14:32:00;102499.41;;;8.35;65.01
43707;BME280;61348;53.392;-6.248;2023-02-26T14:34:35;102515.47;;;8.28;65.04
43707;BME280;61348;53.392;-6.248;2023-02-26T14:37:07;102509.41;;;8.21;65.17
43707;BME280;61348;53.392;-6.248;2023-02-26T14:39:41;102510.56;;;8.15;65.49
43707;BME280;61348;53.392;-6.248;2023-02-26T14:42:40;102511.72;;;8.04;65.22
43707;BME280;61348;53.392;-6.248;2023-02-26T14:47:45;102510.97;;;7.93;65.42
43707;BME280;61348;53.392;-6.248;2023-02-26T14:50:18;102513.44;;;7.94;65.38
43707;BME280;61348;53.392;-6.248;2023-02-26T14:58:42;102507.72;;;8.30;65.50
43707;BME280;61348;53.392;-6.248;2023-02-26T15:03:58;102517.78;;;8.83;65.14
43707;BME280;61348;53.392;-6.248;2023-02-26T15:11:56;102521.88;;;9.14;63.45
43707;BME280;61348;53.392;-6.248;2023-02-26T15:17:36;102506.91;;;9.21;62.99
43707;BME280;61348;53.392;-6.248;2023-02-26T15:23:06;102515.81;;;9.12;62.15
43707;BME280;61348;53.392;-6.248;2023-02-26T15:25:39;102514.84;;;8.98;62.35
43707;BME280;61348;53.392;-6.248;2023-02-26T15:28:16;102514.38;;;8.91;62.67
43707;BME280;61348;53.392;-6.248;2023-02-26T15:30:47;102526.34;;;8.82;62.77
43707;BME280;61348;53.392;-6.248;2023-02-26T15:33:17;102520.69;;;8.68;62.74
43707;BME280;61348;53.392;-6.248;2023-02-26T15:35:49;102519.09;;;8.57;62.86
43707;BME280;61348;53.392;-6.248;2023-02-26T15:38:18;102519.72;;;8.49;62.89
43707;BME280;61348;53.392;-6.248;2023-02-26T15:40:45;102517.53;;;8.46;63.00
43707;BME280;61348;53.392;-6.248;2023-02-26T15:43:21;102522.56;;;8.39;63.11
43707;BME280;61348;53.392;-6.248;2023-02-26T15:45:52;102519.84;;;8.29;62.92
43707;BME280;61348;53.392;-6.248;2023-02-26T15:48:29;102519.38;;;8.17;63.11
43707;BME280;61348;53.392;-6.248;2023-02-26T15:51:01;102523.00;;;8.12;63.13
43707;BME280;61348;53.392;-6.248;2023-02-26T15:53:48;102511.66;;;8.14;63.25
43707;BME280;61348;53.392;-6.248;2023-02-26T15:56:22;102518.31;;;8.13;63.25
43707;BME280;61348;53.392;-6.248;2023-02-26T15:58:54;102518.91;;;8.05;63.29
43707;BME280;61348;53.392;-6.248;2023-02-26T16:01:23;102526.69;;;7.92;63.48
43707;BME280;61348;53.392;-6.248;2023-02-26T16:03:59;102521.25;;;7.77;63.43
43707;BME280;61348;53.392;-6.248;2023-02-26T16:06:31;102522.09;;;7.68;63.65
43707;BME280;61348;53.392;-6.248;2023-02-26T16:09:00;102523.84;;;7.54;63.59
43707;BME280;61348;53.392;-6.248;2023-02-26T16:11:33;102529.09;;;7.45;63.74
43707;BME280;61348;53.392;-6.248;2023-02-26T16:14:01;102527.44;;;7.44;63.88
43707;BME280;61348;53.392;-6.248;2023-02-26T16:16:40;102530.19;;;7.44;63.86
43707;BME280;61348;53.392;-6.248;2023-02-26T16:19:14;102526.88;;;7.47;63.67
43707;BME280;61348;53.392;-6.248;2023-02-26T16:21:43;102526.31;;;7.50;63.59
43707;BME280;61348;53.392;-6.248;2023-02-26T16:24:16;102525.22;;;7.56;63.51
43707;BME280;61348;53.392;-6.248;2023-02-26T16:26:49;102530.69;;;7.66;63.80
43707;BME280;61348;53.392;-6.248;2023-02-26T16:29:25;102523.50;;;7.70;63.80
43707;BME280;61348;53.392;-6.248;2023-02-26T16:31:54;102530.66;;;7.71;63.66
43707;BME280;61348;53.392;-6.248;2023-02-26T16:34:27;102532.00;;;7.74;63.64
43707;BME280;61348;53.392;-6.248;2023-02-26T16:36:56;102527.06;;;7.71;63.67
43707;BME280;61348;53.392;-6.248;2023-02-26T16:39:25;102524.09;;;7.62;63.53
43707;BME280;61348;53.392;-6.248;2023-02-26T16:42:08;102530.19;;;7.54;63.83
43707;BME280;61348;53.392;-6.248;2023-02-26T16:44:43;102534.59;;;7.50;63.99
43707;BME280;61348;53.392;-6.248;2023-02-26T16:47:11;102539.56;;;7.48;64.07
43707;BME280;61348;53.392;-6.248;2023-02-26T16:49:39;102534.06;;;7.48;64.21
43707;BME280;61348;53.392;-6.248;2023-02-26T16:52:11;102534.06;;;7.48;64.27
43707;BME280;61348;53.392;-6.248;2023-02-26T16:54:42;102538.47;;;7.49;64.41